sensor_id;sensor_type;location;lat;lon;timestamp;pressure;altitude;pressure_sealevel;temperature;humidity
65997;BME280;52765;52.258;21.052;2023-04-26T00:00:23;99799.97;;;7.17;100.00
65997;BME280;52765;52.258;21.052;2023-04-26T00:02:49;99808.41;;;7.22;100.00
65997;BME280;52765;52.258;21.052;2023-04-26T00:05:15;99809.84;;;7.17;100.00
65997;BME280;52765;52.258;21.052;2023-04-26T00:07:41;99816.03;;;7.17;100.00
65997;BME280;52765;52.258;21.052;2023-04-26T00:10:08;99813.25;;;7.09;100.00
65997;BME280;52765;52.258;21.052;2023-04-26T00:12:35;99820.91;;;7.04;100.00
65997;BME280;52765;52.258;21.052;2023-04-26T00:15:04;99822.34;;;6.98;100.00
65997;BME280;52765;52.258;21.052;2023-04-26T00:17:30;99818.97;;;6.96;100.00
65997;BME280;52765;52.258;21.052;2023-04-26T00:19:55;99817.13;;;6.97;100.00
65997;BME280;52765;52.258;21.052;2023-04-26T00:22:22;99817.13;;;6.97;100.00
65997;BME280;52765;52.258;21.052;2023-04-26T00:24:48;99835.06;;;6.87;100.00
65997;BME280;52765;52.258;21.052;2023-04-26T00:27:13;99836.47;;;6.81;100.00
65997;BME280;52765;52.258;21.052;2023-04-26T00:29:39;99836.47;;;6.81;100.00
65997;BME280;52765;52.258;21.052;2023-04-26T00:32:05;99856.25;;;6.51;100.00
65997;BME280;52765;52.258;21.052;2023-04-26T00:34:32;99857.53;;;6.46;100.00
65997;BME280;52765;52.258;21.052;2023-04-26T00:36:58;99848.22;;;6.51;100.00
65997;BME280;52765;52.258;21.052;2023-04-26T00:39:23;99858.38;;;6.57;100.00
65997;BME280;52765;52.258;21.052;2023-04-26T00:41:49;99857.50;;;6.66;100.00
65997;BME280;52765;52.258;21.052;2023-04-26T00:44:15;99871.59;;;6.78;100.00
65997;BME280;52765;52.258;21.052;2023-04-26T00:46:41;99869.75;;;6.78;100.00
65997;BME280;52765;52.258;21.052;2023-04-26T00:49:06;99866.25;;;6.78;100.00
65997;BME280;52765;52.258;21.052;2023-04-26T00:51:32;99867.63;;;6.72;100.00
65997;BME280;52765;52.258;21.052;2023-04-26T00:53:58;99864.69;;;6.65;100.00
65997;BME280;52765;52.258;21.052;2023-04-26T00:56:27;99863.16;;;6.63;100.00
65997;BME280;52765;52.258;21.052;2023-04-26T00:58:56;99864.97;;;6.62;100.00
65997;BME280;52765;52.258;21.052;2023-04-26T01:01:21;99862.84;;;6.66;100.00
65997;BME280;52765;52.258;21.052;2023-04-26T01:03:47;99863.72;;;6.66;100.00
65997;BME280;52765;52.258;21.052;2023-04-26T01:06:13;99866.25;;;6.68;100.00
65997;BME280;52765;52.258;21.052;2023-04-26T01:08:38;99869.75;;;6.69;100.00
65997;BME280;52765;52.258;21.052;2023-04-26T01:11:07;99869.47;;;6.72;100.00
65997;BME280;52765;52.258;21.052;2023-04-26T01:13:33;99876.97;;;6.68;100.00
65997;BME280;52765;52.258;21.052;2023-04-26T01:15:58;99875.25;;;6.67;100.00
65997;BME280;52765;52.258;21.052;2023-04-26T01:18:24;99870.59;;;6.69;100.00
65997;BME280;52765;52.258;21.052;2023-04-26T01:20:50;99872.56;;;6.77;100.00
65997;BME280;52765;52.258;21.052;2023-04-26T01:23:17;99882.72;;;6.83;100.00
65997;BME280;52765;52.258;21.052;2023-04-26T01:25:43;99884.72;;;6.71;100.00
65997;BME280;52765;52.258;21.052;2023-04-26T01:28:09;99890.16;;;6.79;100.00
65997;BME280;52765;52.258;21.052;2023-04-26T01:30:34;99892.56;;;6.73;100.00
65997;BME280;52765;52.258;21.052;2023-04-26T01:33:00;99891.44;;;6.75;100.00
65997;BME280;52765;52.258;21.052;2023-04-26T01:35:26;99902.97;;;6.85;100.00
65997;BME280;52765;52.258;21.052;2023-04-26T01:37:51;99900.84;;;6.89;100.00
65997;BME280;52765;52.258;21.052;2023-04-26T01:40:17;99908.47;;;6.84;100.00
65997;BME280;52765;52.258;21.052;2023-04-26T01:42:42;99907.09;;;6.80;100.00
65997;BME280;52765;52.258;21.052;2023-04-26T01:45:08;99892.56;;;6.73;100.00
65997;BME280;52765;52.258;21.052;2023-04-26T01:47:34;99897.38;;;6.69;100.00
65997;BME280;52765;52.258;21.052;2023-04-26T01:50:00;99902.28;;;6.74;100.00
65997;BME280;52765;52.258;21.052;2023-04-26T01:52:25;99893.72;;;6.70;100.00
65997;BME280;52765;52.258;21.052;2023-04-26T01:54:51;99896.66;;;6.77;100.00
65997;BME280;52765;52.258;21.052;2023-04-26T01:57:16;99895.97;;;6.75;100.00
65997;BME280;52765;52.258;21.052;2023-04-26T01:59:42;99897.34;;;6.79;100.00
65997;BME280;52765;52.258;21.052;2023-04-26T02:02:07;99902.56;;;6.80;100.00
65997;BME280;52765;52.258;21.052;2023-04-26T02:04:33;99891.03;;;6.80;100.00
65997;BME280;52765;52.258;21.052;2023-04-26T02:06:59;99898.91;;;6.81;100.00
65997;BME280;52765;52.258;21.052;2023-04-26T02:09:25;99892.84;;;6.79;100.00
65997;BME280;52765;52.258;21.052;2023-04-26T02:11:50;99902.72;;;6.69;100.00
65997;BME280;52765;52.258;21.052;2023-04-26T02:14:16;99898.25;;;6.60;100.00
65997;BME280;52765;52.258;21.052;2023-04-26T02:16:41;99897.81;;;6.64;100.00
65997;BME280;52765;52.258;21.052;2023-04-26T02:19:10;99892.44;;;6.74;100.00
65997;BME280;52765;52.258;21.052;2023-04-26T02:21:56;99903.81;;;6.86;100.00
65997;BME280;52765;52.258;21.052;2023-04-26T02:24:24;99910.75;;;6.79;100.00
65997;BME280;52765;52.258;21.052;2023-04-26T02:26:50;99906.69;;;6.75;100.00
65997;BME280;52765;52.258;21.052;2023-04-26T02:29:17;99901.31;;;6.75;100.00
65997;BME280;52765;52.258;21.052;2023-04-26T02:31:42;99889.47;;;6.67;100.00
65997;BME280;52765;52.258;21.052;2023-04-26T02:34:08;99902.28;;;6.83;100.00
65997;BME280;52765;52.258;21.052;2023-04-26T02:36:33;99889.31;;;6.89;100.00
65997;BME280;52765;52.258;21.052;2023-04-26T02:38:59;99901.53;;;7.01;100.00
65997;BME280;52765;52.258;21.052;2023-04-26T02:41:24;99903.34;;;7.10;100.00
65997;BME280;52765;52.258;21.052;2023-04-26T02:43:50;99896.00;;;7.12;100.00
65997;BME280;52765;52.258;21.052;2023-04-26T02:46:16;99892.22;;;7.15;100.00
65997;BME280;52765;52.258;21.052;2023-04-26T02:48:42;99905.59;;;7.15;100.00
65997;BME280;52765;52.258;21.052;2023-04-26T02:51:07;99898.81;;;7.11;100.00
65997;BME280;52765;52.258;21.052;2023-04-26T02:53:33;99907.59;;;7.13;100.00
65997;BME280;52765;52.258;21.052;2023-04-26T02:55:58;99903.09;;;7.03;100.00
65997;BME280;52765;52.258;21.052;2023-04-26T02:58:25;99899.72;;;6.92;100.00
65997;BME280;52765;52.258;21.052;2023-04-26T03:00:56;99900.84;;;6.89;100.00
65997;BME280;52765;52.258;21.052;2023-04-26T03:03:22;99895.22;;;6.82;100.00
65997;BME280;52765;52.258;21.052;2023-04-26T03:05:48;99901.00;;;6.88;100.00
65997;BME280;52765;52.258;21.052;2023-04-26T03:08:14;99892.28;;;6.85;100.00
65997;BME280;52765;52.258;21.052;2023-04-26T03:10:39;99904.56;;;6.78;100.00
65997;BME280;52765;52.258;21.052;2023-04-26T03:13:05;99909.06;;;6.68;100.00
65997;BME280;52765;52.258;21.052;2023-04-26T03:15:31;99906.41;;;6.48;100.00
65997;BME280;52765;52.258;21.052;2023-04-26T03:17:57;99911.34;;;6.34;100.00
65997;BME280;52765;52.258;21.052;2023-04-26T03:20:23;99911.19;;;6.35;100.00
65997;BME280;52765;52.258;21.052;2023-04-26T03:22:49;99920.34;;;6.33;100.00
65997;BME280;52765;52.258;21.052;2023-04-26T03:25:14;99911.47;;;6.22;100.00
65997;BME280;52765;52.258;21.052;2023-04-26T03:27:40;99912.47;;;6.21;100.00
65997;BME280;52765;52.258;21.052;2023-04-26T03:30:06;99911.63;;;6.30;100.00
65997;BME280;52765;52.258;21.052;2023-04-26T03:32:35;99910.34;;;6.25;100.00
65997;BME280;52765;52.258;21.052;2023-04-26T03:35:02;99913.16;;;6.23;100.00
65997;BME280;52765;52.258;21.052;2023-04-26T03:37:28;99909.66;;;6.23;100.00
65997;BME280;52765;52.258;21.052;2023-04-26T03:39:54;99919.91;;;6.18;100.00
65997;BME280;52765;52.258;21.052;2023-04-26T03:42:19;99913.41;;;6.10;100.00
65997;BME280;52765;52.258;21.052;2023-04-26T03:44:45;99923.72;;;6.15;100.00
65997;BME280;52765;52.258;21.052;2023-04-26T03:47:11;99922.56;;;6.18;100.00
65997;BME280;52765;52.258;21.052;2023-04-26T03:49:36;99919.19;;;6.16;100.00
65997;BME280;52765;52.258;21.052;2023-04-26T03:52:02;99926.38;;;6.05;100.00
65997;BME280;52765;52.258;21.052;2023-04-26T03:54:28;99932.16;;;6.10;100.00
65997;BME280;52765;52.258;21.052;2023-04-26T03:56:53;99929.59;;;6.09;100.00
65997;BME280;52765;52.258;21.052;2023-04-26T03:59:19;99926.38;;;6.05;100.00
65997;BME280;52765;52.258;21.052;2023-04-26T04:01:44;99929.91;;;6.16;100.00
65997;BME280;52765;52.258;21.052;2023-04-26T04:04:10;99933.41;;;6.06;100.00
65997;BME280;52765;52.258;21.052;2023-04-26T04:06:38;99930.13;;;5.93;100.00
65997;BME280;52765;52.258;21.052;2023-04-26T04:09:03;99942.88;;;5.80;100.00
65997;BME280;52765;52.258;21.052;2023-04-26T04:11:32;99940.16;;;5.60;100.00
65997;BME280;52765;52.258;21.052;2023-04-26T04:13:57;99942.91;;;5.49;100.00
65997;BME280;52765;52.258;21.052;2023-04-26T04:16:23;99941.44;;;5.35;100.00
65997;BME280;52765;52.258;21.052;2023-04-26T04:18:48;99935.47;;;5.22;100.00
65997;BME280;52765;52.258;21.052;2023-04-26T04:21:17;99935.41;;;5.12;100.00
65997;BME280;52765;52.258;21.052;2023-04-26T04:23:42;99934.91;;;5.18;100.00
65997;BME280;52765;52.258;21.052;2023-04-26T04:26:08;99944.66;;;5.08;100.00
65997;BME280;52765;52.258;21.052;2023-04-26T04:28:37;99937.25;;;5.11;100.00
65997;BME280;52765;52.258;21.052;2023-04-26T04:31:03;99941.56;;;5.33;100.00
65997;BME280;52765;52.258;21.052;2023-04-26T04:33:29;99942.59;;;5.42;100.00
65997;BME280;52765;52.258;21.052;2023-04-26T04:35:55;99948.59;;;5.34;100.00
65997;BME280;52765;52.258;21.052;2023-04-26T04:38:20;99951.25;;;5.34;100.00
65997;BME280;52765;52.258;21.052;2023-04-26T04:40:48;99941.44;;;5.35;100.00
65997;BME280;52765;52.258;21.052;2023-04-26T04:43:14;99957.41;;;5.46;100.00
65997;BME280;52765;52.258;21.052;2023-04-26T04:45:41;99960.91;;;5.47;100.00
65997;BME280;52765;52.258;21.052;2023-04-26T04:48:06;99962.63;;;5.57;100.00
65997;BME280;52765;52.258;21.052;2023-04-26T04:50:33;99966.72;;;5.62;100.00
65997;BME280;52765;52.258;21.052;2023-04-26T04:52:58;99968.69;;;5.60;100.00
65997;BME280;52765;52.258;21.052;2023-04-26T04:55:24;99957.28;;;5.57;100.00
65997;BME280;52765;52.258;21.052;2023-04-26T04:57:49;99963.19;;;5.61;99.70
65997;BME280;52765;52.258;21.052;2023-04-26T05:00:15;99970.06;;;5.54;100.00
65997;BME280;52765;52.258;21.052;2023-04-26T05:02:41;99978.41;;;5.30;99.78
65997;BME280;52765;52.258;21.052;2023-04-26T05:05:07;99965.09;;;5.18;100.00
65997;BME280;52765;52.258;21.052;2023-04-26T05:07:33;99975.78;;;5.18;100.00
65997;BME280;52765;52.258;21.052;2023-04-26T05:09:59;99986.84;;;5.14;100.00
65997;BME280;52765;52.258;21.052;2023-04-26T05:12:25;99999.75;;;5.09;100.00
65997;BME280;52765;52.258;21.052;2023-04-26T05:14:50;99978.97;;;5.12;100.00
65997;BME280;52765;52.258;21.052;2023-04-26T05:17:16;99977.34;;;5.21;100.00
65997;BME280;52765;52.258;21.052;2023-04-26T05:19:41;99988.75;;;5.23;100.00
65997;BME280;52765;52.258;21.052;2023-04-26T05:22:07;99991.22;;;5.15;100.00
65997;BME280;52765;52.258;21.052;2023-04-26T05:24:32;99986.59;;;5.17;100.00
65997;BME280;52765;52.258;21.052;2023-04-26T05:26:58;99983.31;;;5.34;100.00
65997;BME280;52765;52.258;21.052;2023-04-26T05:29:28;99999.28;;;5.46;100.00
65997;BME280;52765;52.258;21.052;2023-04-26T05:31:54;100003.00;;;5.64;99.72
65997;BME280;52765;52.258;21.052;2023-04-26T05:34:19;100018.88;;;5.56;96.87
65997;BME280;52765;52.258;21.052;2023-04-26T05:36:45;100017.78;;;5.37;96.79
65997;BME280;52765;52.258;21.052;2023-04-26T05:39:10;100009.88;;;5.26;99.34
65997;BME280;52765;52.258;21.052;2023-04-26T05:41:36;100005.75;;;5.22;98.80
65997;BME280;52765;52.258;21.052;2023-04-26T05:44:02;100007.34;;;5.34;98.59
65997;BME280;52765;52.258;21.052;2023-04-26T05:46:28;100019.50;;;5.38;96.05
65997;BME280;52765;52.258;21.052;2023-04-26T05:48:53;100018.03;;;5.34;97.37
65997;BME280;52765;52.258;21.052;2023-04-26T05:51:20;100022.66;;;5.32;94.60
65997;BME280;52765;52.258;21.052;2023-04-26T05:53:45;100009.69;;;5.28;95.39
65997;BME280;52765;52.258;21.052;2023-04-26T05:56:11;100015.72;;;5.20;96.09
65997;BME280;52765;52.258;21.052;2023-04-26T05:58:36;100020.72;;;5.34;95.27
65997;BME280;52765;52.258;21.052;2023-04-26T06:01:02;100016.81;;;5.38;95.41
65997;BME280;52765;52.258;21.052;2023-04-26T06:03:29;100024.97;;;5.37;94.23
65997;BME280;52765;52.258;21.052;2023-04-26T06:05:54;100014.19;;;5.48;94.96
65997;BME280;52765;52.258;21.052;2023-04-26T06:08:20;100018.84;;;5.46;94.88
65997;BME280;52765;52.258;21.052;2023-04-26T06:10:45;100020.03;;;5.63;94.17
65997;BME280;52765;52.258;21.052;2023-04-26T06:13:11;100029.22;;;5.70;93.01
65997;BME280;52765;52.258;21.052;2023-04-26T06:15:37;100017.56;;;5.71;93.54
65997;BME280;52765;52.258;21.052;2023-04-26T06:18:05;100013.09;;;5.82;93.40
65997;BME280;52765;52.258;21.052;2023-04-26T06:20:32;100004.06;;;5.73;92.45
65997;BME280;52765;52.258;21.052;2023-04-26T06:22:57;100013.50;;;5.77;92.95
65997;BME280;52765;52.258;21.052;2023-04-26T06:25:23;100006.66;;;5.94;92.83
65997;BME280;52765;52.258;21.052;2023-04-26T06:27:49;100011.69;;;6.18;91.12
65997;BME280;52765;52.258;21.052;2023-04-26T06:30:14;100007.50;;;6.35;89.46
65997;BME280;52765;52.258;21.052;2023-04-26T06:32:40;100004.88;;;6.55;88.37
65997;BME280;52765;52.258;21.052;2023-04-26T06:35:06;100006.28;;;6.78;87.07
65997;BME280;52765;52.258;21.052;2023-04-26T06:37:33;100018.66;;;6.99;85.89
65997;BME280;52765;52.258;21.052;2023-04-26T06:39:58;100012.75;;;7.05;85.37
65997;BME280;52765;52.258;21.052;2023-04-26T06:42:24;100015.00;;;6.80;84.58
65997;BME280;52765;52.258;21.052;2023-04-26T06:44:50;100020.50;;;6.69;84.84
65997;BME280;52765;52.258;21.052;2023-04-26T06:47:15;100029.81;;;6.65;83.96
65997;BME280;52765;52.258;21.052;2023-04-26T06:49:41;100033.47;;;6.74;83.30
65997;BME280;52765;52.258;21.052;2023-04-26T06:52:07;100016.56;;;6.63;83.37
65997;BME280;52765;52.258;21.052;2023-04-26T06:54:32;100019.66;;;6.78;83.55
65997;BME280;52765;52.258;21.052;2023-04-26T06:56:58;100021.50;;;7.07;82.56
65997;BME280;52765;52.258;21.052;2023-04-26T06:59:23;100008.50;;;7.12;80.25
65997;BME280;52765;52.258;21.052;2023-04-26T07:01:49;100013.16;;;7.30;78.60
65997;BME280;52765;52.258;21.052;2023-04-26T07:04:14;100037.09;;;7.41;74.81
65997;BME280;52765;52.258;21.052;2023-04-26T07:06:42;100013.00;;;7.31;73.11
65997;BME280;52765;52.258;21.052;2023-04-26T07:09:08;100033.28;;;7.44;70.35
65997;BME280;52765;52.258;21.052;2023-04-26T07:11:33;100014.75;;;7.60;68.09
65997;BME280;52765;52.258;21.052;2023-04-26T07:13:59;100023.38;;;7.54;68.41
65997;BME280;52765;52.258;21.052;2023-04-26T07:16:25;100031.81;;;7.59;68.83
65997;BME280;52765;52.258;21.052;2023-04-26T07:18:51;100033.38;;;7.62;66.60
65997;BME280;52765;52.258;21.052;2023-04-26T07:21:23;100035.91;;;7.73;66.78
65997;BME280;52765;52.258;21.052;2023-04-26T07:23:53;100025.19;;;8.01;66.05
65997;BME280;52765;52.258;21.052;2023-04-26T07:26:18;100025.00;;;8.12;64.96
65997;BME280;52765;52.258;21.052;2023-04-26T07:28:44;100040.66;;;8.17;63.22
65997;BME280;52765;52.258;21.052;2023-04-26T07:31:09;100035.31;;;8.07;65.24
65997;BME280;52765;52.258;21.052;2023-04-26T07:33:35;100028.31;;;8.24;63.58
65997;BME280;52765;52.258;21.052;2023-04-26T07:36:01;100028.66;;;8.39;63.08
65997;BME280;52765;52.258;21.052;2023-04-26T07:38:26;100040.84;;;8.33;63.09
65997;BME280;52765;52.258;21.052;2023-04-26T07:40:52;100031.56;;;8.55;63.24
65997;BME280;52765;52.258;21.052;2023-04-26T07:43:19;100031.44;;;8.75;62.58
65997;BME280;52765;52.258;21.052;2023-04-26T07:45:45;100028.56;;;8.94;61.47
65997;BME280;52765;52.258;21.052;2023-04-26T07:48:10;100037.25;;;8.88;61.42
65997;BME280;52765;52.258;21.052;2023-04-26T07:50:36;100049.38;;;8.92;61.29
65997;BME280;52765;52.258;21.052;2023-04-26T07:53:02;100052.09;;;8.46;58.58
65997;BME280;52765;52.258;21.052;2023-04-26T07:55:27;100066.78;;;8.14;59.98
65997;BME280;52765;52.258;21.052;2023-04-26T07:57:53;100066.28;;;8.01;59.84
65997;BME280;52765;52.258;21.052;2023-04-26T08:00:21;100060.34;;;7.97;60.16
65997;BME280;52765;52.258;21.052;2023-04-26T08:02:47;100057.53;;;7.99;59.78
65997;BME280;52765;52.258;21.052;2023-04-26T08:05:13;100061.34;;;8.24;60.06
65997;BME280;52765;52.258;21.052;2023-04-26T08:07:39;100049.44;;;8.46;59.71
65997;BME280;52765;52.258;21.052;2023-04-26T08:10:05;100046.78;;;8.64;59.64
65997;BME280;52765;52.258;21.052;2023-04-26T08:12:32;100059.28;;;8.74;57.04
65997;BME280;52765;52.258;21.052;2023-04-26T08:14:59;100059.72;;;8.69;56.48
65997;BME280;52765;52.258;21.052;2023-04-26T08:17:25;100068.69;;;8.60;57.77
65997;BME280;52765;52.258;21.052;2023-04-26T08:19:50;100048.19;;;8.59;57.45
65997;BME280;52765;52.258;21.052;2023-04-26T08:22:16;100059.81;;;8.77;57.33
65997;BME280;52765;52.258;21.052;2023-04-26T08:24:46;100059.56;;;8.70;56.90
65997;BME280;52765;52.258;21.052;2023-04-26T08:27:12;100062.25;;;8.70;57.96
65997;BME280;52765;52.258;21.052;2023-04-26T08:29:37;100064.06;;;8.98;56.91
65997;BME280;52765;52.258;21.052;2023-04-26T08:32:03;100064.81;;;9.26;55.85
65997;BME280;52765;52.258;21.052;2023-04-26T08:34:28;100050.78;;;9.40;54.74
65997;BME280;52765;52.258;21.052;2023-04-26T08:36:54;100047.53;;;9.11;51.92
65997;BME280;52765;52.258;21.052;2023-04-26T08:39:19;100056.91;;;9.24;52.95
65997;BME280;52765;52.258;21.052;2023-04-26T08:41:49;100061.63;;;9.31;53.59
65997;BME280;52765;52.258;21.052;2023-04-26T08:44:21;100057.84;;;8.79;52.75
65997;BME280;52765;52.258;21.052;2023-04-26T08:47:05;100072.41;;;8.49;54.01
65997;BME280;52765;52.258;21.052;2023-04-26T08:49:40;100066.22;;;8.48;55.10
65997;BME280;52765;52.258;21.052;2023-04-26T08:52:09;100067.78;;;8.41;56.28
65997;BME280;52765;52.258;21.052;2023-04-26T08:54:36;100069.53;;;8.60;56.82
65997;BME280;52765;52.258;21.052;2023-04-26T08:57:02;100070.09;;;8.82;54.54
65997;BME280;52765;52.258;21.052;2023-04-26T08:59:33;100084.13;;;8.76;54.26
65997;BME280;52765;52.258;21.052;2023-04-26T09:02:01;100082.56;;;8.55;53.33
65997;BME280;52765;52.258;21.052;2023-04-26T09:04:29;100073.72;;;9.08;53.41
65997;BME280;52765;52.258;21.052;2023-04-26T09:06:59;100073.78;;;9.17;53.26
65997;BME280;52765;52.258;21.052;2023-04-26T09:09:26;100078.31;;;9.16;52.14
65997;BME280;52765;52.258;21.052;2023-04-26T09:11:55;100081.09;;;9.06;52.47
65997;BME280;52765;52.258;21.052;2023-04-26T09:14:22;100098.34;;;8.86;53.84
65997;BME280;52765;52.258;21.052;2023-04-26T09:16:48;100085.72;;;8.41;55.27
65997;BME280;52765;52.258;21.052;2023-04-26T09:19:13;100089.25;;;8.13;55.08
65997;BME280;52765;52.258;21.052;2023-04-26T09:21:43;100084.88;;;8.40;55.50
65997;BME280;52765;52.258;21.052;2023-04-26T09:24:12;100094.09;;;8.65;54.98
65997;BME280;52765;52.258;21.052;2023-04-26T09:26:38;100082.94;;;8.88;52.44
65997;BME280;52765;52.258;21.052;2023-04-26T09:29:14;100096.88;;;8.74;52.20
65997;BME280;52765;52.258;21.052;2023-04-26T09:31:41;100102.16;;;8.38;52.56
65997;BME280;52765;52.258;21.052;2023-04-26T09:34:09;100096.81;;;8.56;53.00
65997;BME280;52765;52.258;21.052;2023-04-26T09:36:51;100111.63;;;8.87;53.78
65997;BME280;52765;52.258;21.052;2023-04-26T09:41:57;100106.09;;;8.89;50.99
65997;BME280;52765;52.258;21.052;2023-04-26T09:44:23;100099.53;;;9.01;49.30
65997;BME280;52765;52.258;21.052;2023-04-26T09:47:00;100098.72;;;9.27;50.54
65997;BME280;52765;52.258;21.052;2023-04-26T09:49:49;100096.00;;;9.63;48.10
65997;BME280;52765;52.258;21.052;2023-04-26T09:52:17;100106.63;;;9.47;48.15
65997;BME280;52765;52.258;21.052;2023-04-26T09:54:45;100100.81;;;9.33;49.01
65997;BME280;52765;52.258;21.052;2023-04-26T09:57:12;100117.66;;;8.72;48.85
65997;BME280;52765;52.258;21.052;2023-04-26T09:59:42;100120.34;;;8.06;49.20
65997;BME280;52765;52.258;21.052;2023-04-26T10:02:15;100109.63;;;8.06;51.11
65997;BME280;52765;52.258;21.052;2023-04-26T10:04:46;100123.47;;;8.02;51.08
65997;BME280;52765;52.258;21.052;2023-04-26T10:07:12;100118.47;;;8.17;51.62
65997;BME280;52765;52.258;21.052;2023-04-26T10:09:40;100112.34;;;8.24;51.58
65997;BME280;52765;52.258;21.052;2023-04-26T10:12:08;100109.41;;;8.55;51.46
65997;BME280;52765;52.258;21.052;2023-04-26T10:14:34;100105.84;;;8.82;50.75
65997;BME280;52765;52.258;21.052;2023-04-26T10:17:04;100112.00;;;8.75;51.29
65997;BME280;52765;52.258;21.052;2023-04-26T10:19:34;100128.44;;;8.89;50.26
65997;BME280;52765;52.258;21.052;2023-04-26T10:22:05;100128.97;;;8.38;50.61
65997;BME280;52765;52.258;21.052;2023-04-26T10:24:34;100118.19;;;8.20;50.65
65997;BME280;52765;52.258;21.052;2023-04-26T10:27:00;100132.47;;;8.10;51.23
65997;BME280;52765;52.258;21.052;2023-04-26T10:32:20;100119.19;;;8.56;50.30
65997;BME280;52765;52.258;21.052;2023-04-26T10:35:30;100128.31;;;8.91;48.28
65997;BME280;52765;52.258;21.052;2023-04-26T10:40:27;100130.81;;;9.11;46.12
65997;BME280;52765;52.258;21.052;2023-04-26T10:45:47;100134.72;;;8.80;46.99
65997;BME280;52765;52.258;21.052;2023-04-26T10:51:08;100143.41;;;8.27;46.94
65997;BME280;52765;52.258;21.052;2023-04-26T10:59:08;100140.53;;;9.21;46.45
65997;BME280;52765;52.258;21.052;2023-04-26T11:01:33;100139.81;;;9.55;45.43
65997;BME280;52765;52.258;21.052;2023-04-26T11:04:09;100136.66;;;9.60;45.43
65997;BME280;52765;52.258;21.052;2023-04-26T11:09:51;100145.78;;;10.38;45.43
65997;BME280;52765;52.258;21.052;2023-04-26T11:12:16;100143.53;;;10.59;45.05
65997;BME280;52765;52.258;21.052;2023-04-26T11:14:44;100130.25;;;10.66;42.89
65997;BME280;52765;52.258;21.052;2023-04-26T11:17:13;100153.91;;;10.54;41.53
65997;BME280;52765;52.258;21.052;2023-04-26T11:19:42;100156.13;;;10.24;42.47
65997;BME280;52765;52.258;21.052;2023-04-26T11:22:11;100149.66;;;10.17;42.98
65997;BME280;52765;52.258;21.052;2023-04-26T11:24:36;100158.00;;;10.06;44.11
65997;BME280;52765;52.258;21.052;2023-04-26T11:27:09;100153.31;;;9.81;45.60
65997;BME280;52765;52.258;21.052;2023-04-26T11:29:37;100162.41;;;9.89;46.82
65997;BME280;52765;52.258;21.052;2023-04-26T11:32:04;100166.00;;;9.71;46.87
65997;BME280;52765;52.258;21.052;2023-04-26T11:34:36;100168.75;;;9.07;46.31
65997;BME280;52765;52.258;21.052;2023-04-26T11:37:06;100176.41;;;9.02;48.21
65997;BME280;52765;52.258;21.052;2023-04-26T11:39:37;100162.03;;;9.21;45.86
65997;BME280;52765;52.258;21.052;2023-04-26T11:42:12;100164.81;;;9.48;45.58
65997;BME280;52765;52.258;21.052;2023-04-26T11:44:39;100171.72;;;10.21;43.11
65997;BME280;52765;52.258;21.052;2023-04-26T11:47:05;100160.09;;;10.38;42.66
65997;BME280;52765;52.258;21.052;2023-04-26T11:49:32;100155.25;;;10.50;40.73
65997;BME280;52765;52.258;21.052;2023-04-26T11:51:58;100168.56;;;10.25;41.57
65997;BME280;52765;52.258;21.052;2023-04-26T11:54:32;100153.44;;;10.24;41.85
65997;BME280;52765;52.258;21.052;2023-04-26T11:56:58;100151.78;;;10.31;42.51
65997;BME280;52765;52.258;21.052;2023-04-26T11:59:27;100163.16;;;10.25;41.82
65997;BME280;52765;52.258;21.052;2023-04-26T12:01:57;100177.31;;;10.01;43.28
65997;BME280;52765;52.258;21.052;2023-04-26T12:04:29;100186.94;;;9.86;44.36
65997;BME280;52765;52.258;21.052;2023-04-26T12:06:55;100164.69;;;9.75;44.04
65997;BME280;52765;52.258;21.052;2023-04-26T12:09:30;100162.94;;;9.48;44.00
65997;BME280;52765;52.258;21.052;2023-04-26T12:11:56;100174.34;;;9.14;44.83
65997;BME280;52765;52.258;21.052;2023-04-26T12:14:36;100177.78;;;8.88;44.97
65997;BME280;52765;52.258;21.052;2023-04-26T12:17:03;100175.91;;;9.17;45.11
65997;BME280;52765;52.258;21.052;2023-04-26T12:19:36;100181.91;;;9.29;44.89
65997;BME280;52765;52.258;21.052;2023-04-26T12:22:03;100196.84;;;9.41;45.32
65997;BME280;52765;52.258;21.052;2023-04-26T12:24:30;100183.97;;;9.71;44.21
65997;BME280;52765;52.258;21.052;2023-04-26T12:27:00;100201.41;;;9.13;43.69
65997;BME280;52765;52.258;21.052;2023-04-26T12:29:27;100188.25;;;8.54;43.95
65997;BME280;52765;52.258;21.052;2023-04-26T12:31:55;100190.25;;;8.42;45.42
65997;BME280;52765;52.258;21.052;2023-04-26T12:34:20;100195.72;;;8.60;45.51
65997;BME280;52765;52.258;21.052;2023-04-26T12:36:46;100196.81;;;8.67;46.28
65997;BME280;52765;52.258;21.052;2023-04-26T12:39:12;100209.97;;;8.70;47.78
65997;BME280;52765;52.258;21.052;2023-04-26T12:41:39;100210.31;;;8.85;46.64
65997;BME280;52765;52.258;21.052;2023-04-26T12:44:06;100203.44;;;9.01;44.27
65997;BME280;52765;52.258;21.052;2023-04-26T12:46:32;100213.84;;;8.58;44.15
65997;BME280;52765;52.258;21.052;2023-04-26T12:48:58;100217.72;;;8.36;45.33
65997;BME280;52765;52.258;21.052;2023-04-26T12:51:23;100206.25;;;8.81;45.13
65997;BME280;52765;52.258;21.052;2023-04-26T12:53:49;100209.47;;;9.13;44.26
65997;BME280;52765;52.258;21.052;2023-04-26T12:56:15;100214.38;;;9.17;43.89
65997;BME280;52765;52.258;21.052;2023-04-26T12:58:41;100211.31;;;9.30;44.40
65997;BME280;52765;52.258;21.052;2023-04-26T13:01:06;100220.56;;;9.28;45.03
65997;BME280;52765;52.258;21.052;2023-04-26T13:03:36;100211.97;;;8.96;44.52
65997;BME280;52765;52.258;21.052;2023-04-26T13:06:02;100222.22;;;8.83;44.94
65997;BME280;52765;52.258;21.052;2023-04-26T13:08:28;100226.94;;;8.99;45.39
65997;BME280;52765;52.258;21.052;2023-04-26T13:10:53;100227.22;;;8.96;46.20